createdAt,value
2022-10-10T00:01:13.924Z,10.50
2022-10-10T00:03:41.195Z,10.30
2022-10-10T00:06:08.812Z,10.10
2022-10-10T00:08:35.843Z,10.10
2022-10-10T00:11:03.180Z,10.00
2022-10-10T00:13:29.950Z,10.00
2022-10-10T00:15:56.858Z,10.00
2022-10-10T00:18:23.750Z,10.00
2022-10-10T00:20:52.525Z,9.90
2022-10-10T00:23:20.066Z,9.60
2022-10-10T00:25:47.543Z,9.80
2022-10-10T00:28:14.587Z,9.50
2022-10-10T00:30:41.704Z,9.80
2022-10-10T00:33:08.933Z,9.80
2022-10-10T00:35:35.847Z,9.80
2022-10-10T00:38:03.148Z,9.80
2022-10-10T00:40:30.461Z,9.90
2022-10-10T00:42:57.674Z,9.90
2022-10-10T00:45:35.987Z,9.90
2022-10-10T00:48:13.843Z,9.90
2022-10-10T00:50:48.895Z,9.90
2022-10-10T00:53:18.944Z,9.80
2022-10-10T00:55:46.442Z,9.70
2022-10-10T00:58:14.485Z,9.70
2022-10-10T01:00:41.314Z,9.80
2022-10-10T01:03:08.411Z,9.90
2022-10-10T01:05:35.664Z,9.80
2022-10-10T01:08:04.073Z,9.90
2022-10-10T01:10:35.673Z,10.00
2022-10-10T01:13:20.114Z,10.00
2022-10-10T01:15:46.832Z,10.30
2022-10-10T01:18:35.240Z,10.10
2022-10-10T01:21:20.934Z,10.10
2022-10-10T01:24:25.962Z,10.10
2022-10-10T01:27:28.805Z,10.00
2022-10-10T01:30:10.236Z,10.10
2022-10-10T01:32:45.443Z,10.10
2022-10-10T01:35:30.580Z,9.90
2022-10-10T01:38:28.163Z,10.00
2022-10-10T01:41:19.923Z,10.00
2022-10-10T01:43:47.215Z,9.90
2022-10-10T01:46:16.928Z,9.90
2022-10-10T01:48:47.156Z,10.10
2022-10-10T01:51:38.962Z,10.00
2022-10-10T01:54:43.588Z,10.00
2022-10-10T01:57:32.415Z,10.00
2022-10-10T02:00:19.428Z,10.00
2022-10-10T02:03:08.162Z,10.00
2022-10-10T02:05:46.424Z,9.80
2022-10-10T02:08:47.273Z,9.90
2022-10-10T02:11:14.392Z,10.00
2022-10-10T02:13:52.978Z,10.10
2022-10-10T02:16:27.731Z,10.20
2022-10-10T02:18:57.148Z,10.30
2022-10-10T02:21:25.685Z,10.40
2022-10-10T02:23:56.126Z,10.40
2022-10-10T02:26:24.988Z,10.20
2022-10-10T02:29:10.692Z,10.20
2022-10-10T02:31:40.599Z,10.20
2022-10-10T02:34:19.230Z,10.10
2022-10-10T02:36:54.211Z,10.10
2022-10-10T02:39:24.708Z,10.10
2022-10-10T02:41:52.736Z,10.10
2022-10-10T02:44:20.902Z,10.20
2022-10-10T02:46:47.897Z,10.10
2022-10-10T02:49:14.840Z,10.10
2022-10-10T02:51:41.680Z,10.10
2022-10-10T02:54:09.367Z,10.20
2022-10-10T02:56:36.231Z,10.20
2022-10-10T02:59:03.118Z,10.20
2022-10-10T03:01:30.079Z,10.20
2022-10-10T03:03:56.981Z,10.10
2022-10-10T03:06:24.118Z,10.10
2022-10-10T03:08:51.113Z,10.00
2022-10-10T03:11:17.967Z,10.10
2022-10-10T03:13:44.838Z,10.10
2022-10-10T03:16:11.899Z,10.20
2022-10-10T03:18:38.768Z,10.10
2022-10-10T03:21:05.982Z,10.30
2022-10-10T03:23:34.459Z,10.10
2022-10-10T03:26:02.090Z,10.20
2022-10-10T03:28:28.955Z,10.20
2022-10-10T03:30:55.986Z,10.20
2022-10-10T03:33:22.969Z,10.10
2022-10-10T03:35:50.005Z,10.20
2022-10-10T03:38:16.980Z,10.30
2022-10-10T03:40:44.504Z,10.20
2022-10-10T03:43:13.379Z,10.20
2022-10-10T03:45:43.880Z,10.10
2022-10-10T03:48:11.107Z,10.10
2022-10-10T03:50:38.304Z,10.10
2022-10-10T03:53:05.667Z,10.00
2022-10-10T03:55:32.640Z,10.10
2022-10-10T03:57:59.531Z,10.10
2022-10-10T04:00:26.805Z,10.20
2022-10-10T04:02:53.855Z,10.30
2022-10-10T04:05:21.552Z,10.20
2022-10-10T04:07:48.397Z,10.20
2022-10-10T04:10:15.519Z,10.20
2022-10-10T04:12:42.400Z,10.20
2022-10-10T04:15:09.842Z,10.20
2022-10-10T04:17:36.720Z,10.30
2022-10-10T04:20:03.781Z,10.20
2022-10-10T04:22:30.701Z,10.20
2022-10-10T04:24:57.569Z,10.40
2022-10-10T04:27:24.450Z,10.10
2022-10-10T04:29:51.420Z,10.10
2022-10-10T04:32:18.314Z,10.10
2022-10-10T04:34:45.139Z,10.20
2022-10-10T04:37:12.069Z,10.20
2022-10-10T04:39:38.894Z,10.30
2022-10-10T04:42:05.867Z,10.20
2022-10-10T04:44:32.817Z,10.30
2022-10-10T04:46:59.625Z,10.30
2022-10-10T04:49:26.635Z,10.20
2022-10-10T04:51:53.499Z,10.30
2022-10-10T04:54:20.664Z,10.10
2022-10-10T04:56:47.497Z,10.00
2022-10-10T04:59:14.397Z,10.00
2022-10-10T05:01:41.258Z,10.00
2022-10-10T05:04:08.221Z,10.00
2022-10-10T05:06:35.470Z,10.00
2022-10-10T05:09:02.401Z,10.10
2022-10-10T05:11:29.276Z,10.20
2022-10-10T05:13:56.117Z,10.20
2022-10-10T05:16:22.942Z,10.10
2022-10-10T05:18:49.757Z,10.30
2022-10-10T05:21:16.553Z,10.30
2022-10-10T05:23:43.388Z,10.30
2022-10-10T05:26:10.411Z,10.30
2022-10-10T05:28:38.820Z,10.20
2022-10-10T05:31:06.120Z,10.20
2022-10-10T05:33:34.489Z,10.40
2022-10-10T05:36:10.715Z,10.40
2022-10-10T05:38:38.615Z,10.40
2022-10-10T05:41:06.500Z,10.50
2022-10-10T05:43:33.455Z,10.40
2022-10-10T05:46:00.206Z,10.40
2022-10-10T05:48:27.250Z,10.60
2022-10-10T05:50:59.389Z,10.40
2022-10-10T05:53:28.094Z,10.50
2022-10-10T05:55:54.965Z,10.50
2022-10-10T05:58:21.763Z,10.50
2022-10-10T06:00:49.066Z,10.40
2022-10-10T06:03:17.266Z,10.50
2022-10-10T06:05:50.603Z,10.50
2022-10-10T06:08:17.620Z,10.60
2022-10-10T06:10:46.737Z,10.60
2022-10-10T06:13:18.198Z,10.50
2022-10-10T06:15:51.383Z,10.50
2022-10-10T06:18:18.375Z,10.50
2022-10-10T06:20:45.224Z,10.50
2022-10-10T06:23:12.142Z,10.60
2022-10-10T06:25:40.994Z,10.50
2022-10-10T06:28:09.130Z,10.50
2022-10-10T06:30:40.477Z,10.50
2022-10-10T06:33:07.633Z,10.60
2022-10-10T06:35:40.660Z,10.50
2022-10-10T06:38:07.499Z,10.50
2022-10-10T06:40:34.370Z,10.50
2022-10-10T06:43:01.263Z,10.50
2022-10-10T06:45:28.064Z,10.60
2022-10-10T06:47:55.636Z,10.50
2022-10-10T06:50:22.677Z,10.50
2022-10-10T06:52:49.801Z,10.60
2022-10-10T06:55:16.873Z,10.60
2022-10-10T06:57:43.699Z,10.60
2022-10-10T07:00:12.262Z,10.60
2022-10-10T07:02:40.867Z,10.60
2022-10-10T07:05:12.158Z,10.70
2022-10-10T07:07:40.308Z,10.60
2022-10-10T07:10:09.961Z,10.80
2022-10-10T07:12:43.539Z,10.60
2022-10-10T07:15:11.819Z,10.50
2022-10-10T07:17:39.044Z,10.60
2022-10-10T07:20:06.571Z,10.50
2022-10-10T07:22:33.684Z,10.70
2022-10-10T07:25:00.515Z,10.70
2022-10-10T07:27:27.451Z,10.50
2022-10-10T07:29:54.394Z,10.80
2022-10-10T07:32:21.255Z,10.70
2022-10-10T07:34:48.073Z,10.60
2022-10-10T07:37:14.888Z,10.70
2022-10-10T07:39:41.767Z,10.70
2022-10-10T07:42:08.549Z,10.70
2022-10-10T07:44:35.343Z,10.80
2022-10-10T07:47:02.308Z,10.80
2022-10-10T07:49:29.203Z,11.00
2022-10-10T07:51:58.864Z,10.90
2022-10-10T07:54:27.586Z,11.10
2022-10-10T07:56:54.463Z,11.20
2022-10-10T07:59:21.677Z,11.30
2022-10-10T08:01:48.581Z,11.30
2022-10-10T08:04:15.554Z,11.40
2022-10-10T08:06:42.413Z,11.40
2022-10-10T08:09:09.429Z,11.40
2022-10-10T08:11:36.265Z,11.40
2022-10-10T08:14:03.380Z,11.70
2022-10-10T08:16:30.306Z,11.70
2022-10-10T08:18:57.292Z,11.70
2022-10-10T08:21:24.452Z,11.80
2022-10-10T08:23:51.369Z,11.80
2022-10-10T08:26:19.986Z,11.70
2022-10-10T08:28:48.618Z,11.80
2022-10-10T08:31:18.052Z,11.80
2022-10-10T08:33:46.124Z,12.00
2022-10-10T08:36:16.551Z,12.10
2022-10-10T08:38:44.004Z,12.00
2022-10-10T08:41:20.987Z,12.20
2022-10-10T08:43:54.536Z,12.20
2022-10-10T08:46:36.585Z,12.30
2022-10-10T08:49:16.447Z,12.30
2022-10-10T08:51:49.822Z,12.40
2022-10-10T08:54:18.269Z,12.20
2022-10-10T08:56:45.214Z,12.30
2022-10-10T08:59:20.809Z,12.30
2022-10-10T09:02:17.667Z,12.40
2022-10-10T09:04:37.062Z,12.60
2022-10-10T09:07:15.172Z,12.80
2022-10-10T09:10:07.545Z,12.70
2022-10-10T09:12:48.713Z,12.70
2022-10-10T09:15:20.253Z,12.60
2022-10-10T09:17:47.085Z,12.70
2022-10-10T09:20:32.447Z,12.80
2022-10-10T09:23:21.191Z,12.80
2022-10-10T09:26:03.662Z,12.90
2022-10-10T09:28:42.458Z,12.90
2022-10-10T09:31:23.603Z,13.00
2022-10-10T09:34:00.247Z,13.20
2022-10-10T09:36:34.134Z,13.20
2022-10-10T09:39:06.573Z,13.30
2022-10-10T09:41:47.504Z,13.40
2022-10-10T09:44:17.133Z,13.20
2022-10-10T09:46:43.933Z,13.30
2022-10-10T09:49:17.694Z,13.30
2022-10-10T09:51:49.283Z,13.40
2022-10-10T09:54:19.318Z,13.30
2022-10-10T09:56:53.550Z,13.30
2022-10-10T09:59:40.636Z,13.40
2022-10-10T10:02:23.165Z,13.60
2022-10-10T10:04:51.144Z,13.60
2022-10-10T10:07:18.324Z,13.60
2022-10-10T10:09:54.750Z,13.60
2022-10-10T10:12:25.731Z,13.80
2022-10-10T10:14:58.606Z,14.00
2022-10-10T10:17:25.623Z,13.80
2022-10-10T10:19:52.684Z,14.00
2022-10-10T10:22:32.920Z,14.10
2022-10-10T10:25:20.884Z,14.20
2022-10-10T10:27:47.756Z,14.10
2022-10-10T10:30:25.771Z,14.10
2022-10-10T10:33:21.527Z,14.10
2022-10-10T10:36:14.980Z,14.10
2022-10-10T10:39:03.352Z,14.10
2022-10-10T10:41:38.737Z,14.20
2022-10-10T10:44:14.410Z,14.20
2022-10-10T10:47:09.040Z,14.30
2022-10-10T10:50:10.159Z,14.30
2022-10-10T10:53:01.470Z,14.50
2022-10-10T10:55:49.676Z,14.60
2022-10-10T10:59:16.127Z,14.70
2022-10-10T11:02:26.031Z,14.80
2022-10-10T11:05:23.425Z,14.90
2022-10-10T11:08:36.299Z,15.00
2022-10-10T11:11:35.793Z,15.10
2022-10-10T11:14:20.972Z,15.10
2022-10-10T11:17:11.677Z,15.00
2022-10-10T11:19:59.510Z,15.00
2022-10-10T11:22:39.335Z,15.00
2022-10-10T11:25:15.741Z,14.90
2022-10-10T11:27:57.972Z,14.90
2022-10-10T11:30:26.119Z,14.90
2022-10-10T11:33:04.891Z,15.00
2022-10-10T11:35:46.913Z,14.90
2022-10-10T11:38:35.878Z,14.90
2022-10-10T11:41:23.062Z,14.90
2022-10-10T11:44:21.772Z,14.90
2022-10-10T11:47:07.315Z,14.90
2022-10-10T11:49:49.125Z,14.90
2022-10-10T11:52:33.006Z,14.90
2022-10-10T11:55:06.914Z,14.90
2022-10-10T11:57:54.692Z,15.00
2022-10-10T12:00:22.187Z,15.10
2022-10-10T12:02:49.059Z,15.10
2022-10-10T12:05:18.924Z,15.20
2022-10-10T12:07:58.039Z,15.20
2022-10-10T12:10:32.142Z,15.10
2022-10-10T12:13:08.009Z,15.20
2022-10-10T12:15:42.626Z,15.20
2022-10-10T12:18:51.029Z,15.30
2022-10-10T12:21:26.725Z,15.40
2022-10-10T12:24:13.773Z,15.30
2022-10-10T12:26:52.733Z,15.10
2022-10-10T12:29:56.804Z,15.20
2022-10-10T12:32:24.580Z,15.20
2022-10-10T12:34:51.332Z,15.10
2022-10-10T12:37:30.166Z,15.10
2022-10-10T12:40:23.315Z,15.10
2022-10-10T12:42:55.908Z,15.20
2022-10-10T12:45:31.870Z,15.30
2022-10-10T12:48:06.669Z,15.40
2022-10-10T12:50:43.703Z,15.60
2022-10-10T12:53:13.471Z,15.80
2022-10-10T12:55:43.373Z,15.80
2022-10-10T12:58:26.574Z,15.80
2022-10-10T13:00:56.642Z,15.90
2022-10-10T13:03:33.660Z,16.00
2022-10-10T13:06:23.147Z,16.30
2022-10-10T13:08:51.983Z,16.40
2022-10-10T13:11:18.723Z,16.60
2022-10-10T13:13:51.060Z,16.80
2022-10-10T13:16:20.780Z,16.90
2022-10-10T13:18:56.287Z,17.10
2022-10-10T13:21:27.055Z,17.10
2022-10-10T13:24:03.358Z,17.10
2022-10-10T13:26:34.093Z,17.00
2022-10-10T13:29:25.059Z,17.30
2022-10-10T13:31:54.350Z,17.30
2022-10-10T13:34:29.771Z,17.20
2022-10-10T13:36:58.853Z,17.30
2022-10-10T13:39:27.183Z,17.20
2022-10-10T13:41:54.835Z,17.30
2022-10-10T13:44:46.175Z,17.60
2022-10-10T13:47:50.519Z,17.60
2022-10-10T13:50:20.328Z,17.60
2022-10-10T13:52:47.140Z,17.50
2022-10-10T13:55:34.319Z,17.40
2022-10-10T13:58:07.811Z,17.60
2022-10-10T14:00:35.663Z,17.90
2022-10-10T14:03:12.671Z,17.90
2022-10-10T14:05:44.033Z,18.10
2022-10-10T14:08:20.343Z,18.10
2022-10-10T14:11:08.570Z,18.00
2022-10-10T14:13:38.139Z,18.00
2022-10-10T14:16:22.801Z,18.00
2022-10-10T14:18:49.911Z,18.00
2022-10-10T14:21:16.776Z,18.00
2022-10-10T14:23:43.639Z,18.20
2022-10-10T14:26:15.027Z,18.30
2022-10-10T14:28:42.408Z,18.10
2022-10-10T14:31:09.490Z,18.10
2022-10-10T14:33:36.517Z,18.00
2022-10-10T14:36:03.968Z,18.00
2022-10-10T14:38:33.061Z,18.00
2022-10-10T14:41:00.822Z,18.00
2022-10-10T14:43:28.059Z,18.00
2022-10-10T14:45:55.173Z,18.00
2022-10-10T14:48:22.247Z,18.10
2022-10-10T14:50:51.151Z,18.20
2022-10-10T14:53:18.451Z,18.10
2022-10-10T14:55:45.998Z,18.10
2022-10-10T14:58:18.578Z,18.20
2022-10-10T15:00:45.886Z,18.20
2022-10-10T15:03:12.908Z,18.20
2022-10-10T15:05:40.630Z,18.20
2022-10-10T15:08:07.535Z,18.10
2022-10-10T15:10:35.371Z,18.00
2022-10-10T15:13:03.250Z,18.00
2022-10-10T15:15:30.571Z,17.90
2022-10-10T15:18:00.868Z,17.70
2022-10-10T15:20:31.545Z,17.60
2022-10-10T15:23:04.470Z,17.50
2022-10-10T15:25:33.894Z,17.50
2022-10-10T15:28:02.726Z,17.50
2022-10-10T15:30:29.690Z,17.50
2022-10-10T15:32:56.567Z,17.40
2022-10-10T15:35:24.965Z,17.30
2022-10-10T15:37:51.812Z,17.20
2022-10-10T15:40:23.094Z,17.20
2022-10-10T15:42:51.012Z,17.10
2022-10-10T15:45:36.936Z,17.00
2022-10-10T15:48:05.630Z,17.00
2022-10-10T15:50:34.407Z,16.90
2022-10-10T15:53:01.289Z,16.80
2022-10-10T15:55:28.107Z,16.70
2022-10-10T15:57:55.300Z,16.50
2022-10-10T16:00:22.209Z,16.40
2022-10-10T16:02:49.004Z,16.30
2022-10-10T16:05:15.916Z,16.20
2022-10-10T16:07:47.927Z,16.20
2022-10-10T16:10:15.714Z,16.10
2022-10-10T16:12:42.778Z,16.00
2022-10-10T16:15:09.969Z,15.90
2022-10-10T16:17:36.808Z,15.90
2022-10-10T16:20:04.352Z,15.80
2022-10-10T16:22:31.521Z,15.80
2022-10-10T16:27:46.060Z,15.70
2022-10-10T16:30:13.233Z,15.70
2022-10-10T16:32:42.547Z,15.60
2022-10-10T16:35:10.744Z,15.50
2022-10-10T16:37:38.195Z,15.50
2022-10-10T16:40:06.327Z,15.50
2022-10-10T16:42:33.670Z,15.50
2022-10-10T16:45:00.517Z,15.40
2022-10-10T16:47:27.363Z,15.40
2022-10-10T16:49:54.189Z,15.40
2022-10-10T16:52:21.079Z,15.40
2022-10-10T16:54:51.927Z,15.40
2022-10-10T16:57:19.484Z,15.40
2022-10-10T16:59:46.378Z,15.30
2022-10-10T17:02:13.510Z,15.30
2022-10-10T17:04:40.416Z,15.30
2022-10-10T17:07:07.273Z,15.30
2022-10-10T17:09:34.085Z,15.20
2022-10-10T17:12:01.070Z,15.20
2022-10-10T17:14:27.920Z,15.20
2022-10-10T17:19:41.634Z,15.10
2022-10-10T17:22:08.572Z,15.10
2022-10-10T17:24:35.953Z,15.00
2022-10-10T17:27:02.902Z,15.00
2022-10-10T17:29:29.762Z,15.00
2022-10-10T17:31:56.639Z,14.90
2022-10-10T17:34:23.597Z,14.90
2022-10-10T17:36:50.469Z,14.90
2022-10-10T17:39:17.253Z,14.90
2022-10-10T17:41:45.958Z,14.90
2022-10-10T17:44:13.465Z,14.90
2022-10-10T17:46:41.314Z,14.90
2022-10-10T17:49:11.221Z,14.90
2022-10-10T17:51:39.904Z,14.90
2022-10-10T17:54:07.338Z,14.90
2022-10-10T17:56:34.743Z,14.80
2022-10-10T17:59:02.424Z,14.80
2022-10-10T18:01:32.566Z,14.80
2022-10-10T18:03:59.723Z,14.70
2022-10-10T18:06:28.902Z,14.70
2022-10-10T18:08:56.607Z,14.70
2022-10-10T18:11:27.475Z,14.70
2022-10-10T18:14:00.233Z,14.70
2022-10-10T18:16:30.248Z,14.60
2022-10-10T18:18:58.490Z,14.60
2022-10-10T18:21:25.758Z,14.60
2022-10-10T18:23:53.654Z,14.60
2022-10-10T18:26:23.661Z,14.60
2022-10-10T18:28:54.022Z,14.60
2022-10-10T18:31:27.109Z,14.60
2022-10-10T18:33:54.598Z,14.60
2022-10-10T18:36:24.988Z,14.50
2022-10-10T18:38:52.226Z,14.50
2022-10-10T18:41:21.366Z,14.50
2022-10-10T18:43:49.138Z,14.40
2022-10-10T18:46:19.036Z,14.40
2022-10-10T18:48:50.287Z,14.40
2022-10-10T18:51:26.046Z,14.40
2022-10-10T18:53:57.043Z,14.40
2022-10-10T18:56:26.715Z,14.40
2022-10-10T18:58:57.108Z,14.40
2022-10-10T19:01:25.721Z,14.50
2022-10-10T19:03:54.268Z,14.50
2022-10-10T19:06:22.774Z,14.40
2022-10-10T19:08:51.892Z,14.40
2022-10-10T19:11:22.252Z,14.30
2022-10-10T19:13:49.429Z,14.40
2022-10-10T19:16:16.754Z,14.30
2022-10-10T19:18:43.661Z,14.40
2022-10-10T19:21:10.906Z,14.40
2022-10-10T19:23:38.238Z,14.40
2022-10-10T19:26:08.472Z,14.40
2022-10-10T19:28:36.981Z,14.40
2022-10-10T19:31:09.397Z,14.40
2022-10-10T19:33:36.937Z,14.30
2022-10-10T19:36:06.208Z,14.30
2022-10-10T19:38:38.869Z,14.30
2022-10-10T19:41:08.015Z,14.40
2022-10-10T19:43:35.123Z,14.30
2022-10-10T19:46:09.316Z,14.30
2022-10-10T19:48:37.079Z,14.30
2022-10-10T19:51:10.356Z,14.50
2022-10-10T19:53:38.683Z,14.50
2022-10-10T19:56:08.817Z,14.70
2022-10-10T19:58:37.060Z,14.70
2022-10-10T20:01:12.828Z,14.60
2022-10-10T20:03:40.167Z,14.50
2022-10-10T20:06:07.365Z,14.40
2022-10-10T20:08:35.134Z,14.40
2022-10-10T20:11:02.900Z,14.30
2022-10-10T20:13:29.881Z,14.30
2022-10-10T20:16:00.980Z,14.30
2022-10-10T20:18:28.238Z,14.30
2022-10-10T20:20:55.250Z,14.20
2022-10-10T20:23:24.258Z,14.30
2022-10-10T20:25:51.718Z,14.50
2022-10-10T20:28:19.996Z,14.50
2022-10-10T20:30:50.422Z,14.50
2022-10-10T20:33:19.178Z,14.50
2022-10-10T20:35:46.912Z,14.50
2022-10-10T20:38:14.244Z,14.40
2022-10-10T20:40:43.511Z,14.30
2022-10-10T20:43:14.219Z,14.30
2022-10-10T20:45:41.528Z,14.30
2022-10-10T20:48:09.990Z,14.20
2022-10-10T20:50:38.228Z,14.20
2022-10-10T20:53:06.405Z,14.20
2022-10-10T20:55:33.487Z,14.10
2022-10-10T20:58:00.484Z,14.20
2022-10-10T21:00:27.515Z,14.10
2022-10-10T21:02:57.420Z,14.10
2022-10-10T21:05:24.298Z,14.10
2022-10-10T21:07:51.225Z,14.20
2022-10-10T21:10:18.085Z,14.10
2022-10-10T21:12:45.059Z,14.10
2022-10-10T21:15:12.088Z,14.10
2022-10-10T21:17:39.106Z,14.10
2022-10-10T21:20:07.173Z,14.10
2022-10-10T21:22:34.242Z,14.10
2022-10-10T21:25:01.164Z,14.10
2022-10-10T21:27:28.060Z,14.10
2022-10-10T21:29:55.006Z,14.10
2022-10-10T21:32:21.909Z,14.20
2022-10-10T21:34:51.927Z,14.20
2022-10-10T21:37:21.257Z,14.30
2022-10-10T21:39:48.279Z,14.30
2022-10-10T21:42:15.191Z,14.30
2022-10-10T21:44:42.426Z,14.40
2022-10-10T21:47:09.292Z,14.40
2022-10-10T21:49:36.305Z,14.40
2022-10-10T21:52:03.283Z,14.40
2022-10-10T21:54:30.172Z,14.40
2022-10-10T21:56:57.104Z,14.30
2022-10-10T21:59:26.461Z,14.50
2022-10-10T22:01:53.411Z,14.40
2022-10-10T22:04:20.330Z,14.40
2022-10-10T22:06:47.177Z,14.30
2022-10-10T22:09:14.127Z,14.30
2022-10-10T22:11:41.254Z,14.30
2022-10-10T22:14:08.459Z,14.20
2022-10-10T22:16:35.873Z,14.20
2022-10-10T22:19:03.329Z,14.10
2022-10-10T22:21:32.097Z,14.10
2022-10-10T22:24:01.977Z,14.10
2022-10-10T22:26:29.835Z,14.10
2022-10-10T22:28:56.894Z,14.00
2022-10-10T22:31:23.980Z,13.90
2022-10-10T22:33:50.933Z,13.90
2022-10-10T22:36:17.869Z,13.80
2022-10-10T22:38:45.566Z,13.80
2022-10-10T22:41:13.464Z,13.80
2022-10-10T22:43:40.573Z,13.70
2022-10-10T22:46:08.697Z,13.70
2022-10-10T22:48:36.234Z,13.90
2022-10-10T22:51:06.500Z,13.70
2022-10-10T22:53:34.932Z,13.70
2022-10-10T22:56:02.491Z,13.70
2022-10-10T22:58:31.878Z,13.70
2022-10-10T23:01:07.003Z,13.70
2022-10-10T23:03:33.982Z,13.70
2022-10-10T23:06:01.902Z,13.70
2022-10-10T23:08:29.483Z,13.70
2022-10-10T23:10:56.689Z,13.70
2022-10-10T23:13:23.699Z,13.70
2022-10-10T23:15:50.568Z,13.70
2022-10-10T23:18:17.468Z,13.60
2022-10-10T23:20:48.072Z,13.70
2022-10-10T23:23:16.639Z,13.70
2022-10-10T23:25:44.983Z,13.60
2022-10-10T23:28:12.657Z,13.60
2022-10-10T23:30:44.719Z,13.60
2022-10-10T23:33:12.037Z,13.60
2022-10-10T23:35:39.190Z,13.50
2022-10-10T23:38:06.484Z,13.60
2022-10-10T23:40:34.104Z,13.60
2022-10-10T23:43:01.059Z,13.60
2022-10-10T23:45:28.057Z,13.60
2022-10-10T23:47:54.991Z,13.60
2022-10-10T23:50:21.864Z,13.60
2022-10-10T23:52:48.784Z,13.60
2022-10-10T23:55:15.731Z,13.60
2022-10-10T23:57:42.621Z,13.50
